sensor_id;sensor_type;location;lat;lon;timestamp;temperature;humidity
18163;DHT22;9206;50.994;4.538;2023-02-15T00:00:38;1.40;99.90
18163;DHT22;9206;50.994;4.538;2023-02-15T00:03:29;1.30;99.90
18163;DHT22;9206;50.994;4.538;2023-02-15T00:06:22;1.30;99.90
18163;DHT22;9206;50.994;4.538;2023-02-15T00:09:11;1.30;99.90
18163;DHT22;9206;50.994;4.538;2023-02-15T00:11:58;1.20;99.90
18163;DHT22;9206;50.994;4.538;2023-02-15T00:14:50;1.20;99.90
18163;DHT22;9206;50.994;4.538;2023-02-15T00:17:43;1.20;99.90
18163;DHT22;9206;50.994;4.538;2023-02-15T00:20:35;1.10;99.90
18163;DHT22;9206;50.994;4.538;2023-02-15T00:23:23;1.10;99.90
18163;DHT22;9206;50.994;4.538;2023-02-15T00:26:12;1.00;99.90
18163;DHT22;9206;50.994;4.538;2023-02-15T00:29:03;1.10;99.90
18163;DHT22;9206;50.994;4.538;2023-02-15T00:31:51;1.00;99.90
18163;DHT22;9206;50.994;4.538;2023-02-15T00:34:39;0.90;99.90
18163;DHT22;9206;50.994;4.538;2023-02-15T00:37:32;0.90;99.90
18163;DHT22;9206;50.994;4.538;2023-02-15T00:40:21;0.80;99.90
18163;DHT22;9206;50.994;4.538;2023-02-15T00:43:09;0.80;99.90
18163;DHT22;9206;50.994;4.538;2023-02-15T00:45:56;0.90;99.90
18163;DHT22;9206;50.994;4.538;2023-02-15T00:48:45;0.90;99.90
18163;DHT22;9206;50.994;4.538;2023-02-15T00:51:38;0.80;99.90
18163;DHT22;9206;50.994;4.538;2023-02-15T00:54:31;0.70;99.90
18163;DHT22;9206;50.994;4.538;2023-02-15T00:57:26;0.60;99.90
18163;DHT22;9206;50.994;4.538;2023-02-15T01:00:13;0.70;99.90
18163;DHT22;9206;50.994;4.538;2023-02-15T01:03:07;0.60;99.90
18163;DHT22;9206;50.994;4.538;2023-02-15T01:05:55;0.60;99.90
18163;DHT22;9206;50.994;4.538;2023-02-15T01:08:44;0.50;99.90
18163;DHT22;9206;50.994;4.538;2023-02-15T01:11:37;0.50;99.90
18163;DHT22;9206;50.994;4.538;2023-02-15T01:14:30;0.50;99.90
18163;DHT22;9206;50.994;4.538;2023-02-15T01:17:21;0.40;99.90
18163;DHT22;9206;50.994;4.538;2023-02-15T01:20:09;0.40;99.90
18163;DHT22;9206;50.994;4.538;2023-02-15T01:23:01;0.40;99.90
18163;DHT22;9206;50.994;4.538;2023-02-15T01:25:50;0.30;99.90
18163;DHT22;9206;50.994;4.538;2023-02-15T01:28:37;0.30;99.90
18163;DHT22;9206;50.994;4.538;2023-02-15T01:31:26;0.30;99.90
18163;DHT22;9206;50.994;4.538;2023-02-15T01:34:15;0.20;99.90
18163;DHT22;9206;50.994;4.538;2023-02-15T01:37:02;0.20;99.90
18163;DHT22;9206;50.994;4.538;2023-02-15T01:39:51;0.20;99.90
18163;DHT22;9206;50.994;4.538;2023-02-15T01:42:40;0.20;99.90
18163;DHT22;9206;50.994;4.538;2023-02-15T01:45:30;0.10;99.90
18163;DHT22;9206;50.994;4.538;2023-02-15T01:48:21;0.10;99.90
18163;DHT22;9206;50.994;4.538;2023-02-15T01:51:13;0.10;99.90
18163;DHT22;9206;50.994;4.538;2023-02-15T01:54:06;0.00;99.90
18163;DHT22;9206;50.994;4.538;2023-02-15T01:57:00;0.00;99.90
18163;DHT22;9206;50.994;4.538;2023-02-15T01:59:53;0.00;99.90
18163;DHT22;9206;50.994;4.538;2023-02-15T02:02:45;-0.10;99.90
18163;DHT22;9206;50.994;4.538;2023-02-15T02:05:35;-0.10;99.90
18163;DHT22;9206;50.994;4.538;2023-02-15T02:08:25;-0.10;99.90
18163;DHT22;9206;50.994;4.538;2023-02-15T02:11:16;-0.20;99.90
18163;DHT22;9206;50.994;4.538;2023-02-15T02:14:06;-0.20;99.90
18163;DHT22;9206;50.994;4.538;2023-02-15T02:17:06;-0.20;99.90
18163;DHT22;9206;50.994;4.538;2023-02-15T02:20:17;-0.20;99.90
18163;DHT22;9206;50.994;4.538;2023-02-15T02:23:32;-0.20;99.90
18163;DHT22;9206;50.994;4.538;2023-02-15T02:26:55;-0.10;99.90
18163;DHT22;9206;50.994;4.538;2023-02-15T02:33:24;0.00;99.90
18163;DHT22;9206;50.994;4.538;2023-02-15T02:36:20;-0.10;99.90
18163;DHT22;9206;50.994;4.538;2023-02-15T02:39:21;-0.10;99.90
18163;DHT22;9206;50.994;4.538;2023-02-15T02:42:15;-0.10;99.90
18163;DHT22;9206;50.994;4.538;2023-02-15T02:45:08;-0.20;99.90
18163;DHT22;9206;50.994;4.538;2023-02-15T02:48:06;-0.20;99.90
18163;DHT22;9206;50.994;4.538;2023-02-15T02:50:56;-0.30;99.90
18163;DHT22;9206;50.994;4.538;2023-02-15T02:53:47;-0.40;99.90
18163;DHT22;9206;50.994;4.538;2023-02-15T02:56:37;-0.40;99.90
18163;DHT22;9206;50.994;4.538;2023-02-15T02:59:31;-0.50;99.90
18163;DHT22;9206;50.994;4.538;2023-02-15T03:02:25;-0.50;99.90
18163;DHT22;9206;50.994;4.538;2023-02-15T03:05:17;-0.60;99.90
18163;DHT22;9206;50.994;4.538;2023-02-15T03:08:09;-0.60;99.90
18163;DHT22;9206;50.994;4.538;2023-02-15T03:11:00;-0.60;99.90
18163;DHT22;9206;50.994;4.538;2023-02-15T03:13:49;-0.60;99.90
18163;DHT22;9206;50.994;4.538;2023-02-15T03:16:39;-0.60;99.90
18163;DHT22;9206;50.994;4.538;2023-02-15T03:19:31;-0.60;99.90
18163;DHT22;9206;50.994;4.538;2023-02-15T03:22:26;-0.60;99.90
18163;DHT22;9206;50.994;4.538;2023-02-15T03:25:21;-0.70;99.90
18163;DHT22;9206;50.994;4.538;2023-02-15T03:28:14;-0.70;99.90
18163;DHT22;9206;50.994;4.538;2023-02-15T03:31:05;-0.70;99.90
18163;DHT22;9206;50.994;4.538;2023-02-15T03:34:09;-0.80;99.90
18163;DHT22;9206;50.994;4.538;2023-02-15T03:44:21;-0.80;99.90
18163;DHT22;9206;50.994;4.538;2023-02-15T03:47:19;-0.80;99.90
18163;DHT22;9206;50.994;4.538;2023-02-15T03:53:58;-0.90;99.90
18163;DHT22;9206;50.994;4.538;2023-02-15T03:56:48;-0.90;99.90
18163;DHT22;9206;50.994;4.538;2023-02-15T04:00:00;-0.90;99.90
18163;DHT22;9206;50.994;4.538;2023-02-15T04:03:12;-1.00;99.90
18163;DHT22;9206;50.994;4.538;2023-02-15T04:06:04;-1.00;99.90
18163;DHT22;9206;50.994;4.538;2023-02-15T04:08:54;-1.00;99.90
18163;DHT22;9206;50.994;4.538;2023-02-15T04:12:02;-1.00;99.90
18163;DHT22;9206;50.994;4.538;2023-02-15T04:14:51;-1.00;99.90
18163;DHT22;9206;50.994;4.538;2023-02-15T04:17:56;-1.00;99.90
18163;DHT22;9206;50.994;4.538;2023-02-15T04:20:46;-1.10;99.90
18163;DHT22;9206;50.994;4.538;2023-02-15T04:23:53;-1.10;99.90
18163;DHT22;9206;50.994;4.538;2023-02-15T04:26:59;-1.10;99.90
18163;DHT22;9206;50.994;4.538;2023-02-15T04:29:48;-1.20;99.90
18163;DHT22;9206;50.994;4.538;2023-02-15T04:32:38;-1.20;99.90
18163;DHT22;9206;50.994;4.538;2023-02-15T04:35:28;-1.20;99.90
18163;DHT22;9206;50.994;4.538;2023-02-15T04:38:17;-1.20;99.90
18163;DHT22;9206;50.994;4.538;2023-02-15T04:41:10;-1.30;99.90
18163;DHT22;9206;50.994;4.538;2023-02-15T04:44:04;-1.30;99.90
18163;DHT22;9206;50.994;4.538;2023-02-15T04:46:52;-1.30;99.90
18163;DHT22;9206;50.994;4.538;2023-02-15T04:49:41;-1.30;99.90
18163;DHT22;9206;50.994;4.538;2023-02-15T04:52:34;-1.40;99.90
18163;DHT22;9206;50.994;4.538;2023-02-15T04:55:21;-1.40;99.90
18163;DHT22;9206;50.994;4.538;2023-02-15T04:58:14;-1.30;99.90
18163;DHT22;9206;50.994;4.538;2023-02-15T05:01:02;-1.30;99.90
18163;DHT22;9206;50.994;4.538;2023-02-15T05:03:49;-1.30;99.90
18163;DHT22;9206;50.994;4.538;2023-02-15T05:06:39;-1.40;99.90
18163;DHT22;9206;50.994;4.538;2023-02-15T05:09:29;-1.40;99.90
18163;DHT22;9206;50.994;4.538;2023-02-15T05:12:17;-1.40;99.90
18163;DHT22;9206;50.994;4.538;2023-02-15T05:15:05;-1.40;99.90
18163;DHT22;9206;50.994;4.538;2023-02-15T05:17:53;-1.40;99.90
18163;DHT22;9206;50.994;4.538;2023-02-15T05:20:44;-1.50;99.90
18163;DHT22;9206;50.994;4.538;2023-02-15T05:23:33;-1.40;99.90
18163;DHT22;9206;50.994;4.538;2023-02-15T05:26:24;-1.40;99.90
18163;DHT22;9206;50.994;4.538;2023-02-15T05:29:30;-1.40;99.90
18163;DHT22;9206;50.994;4.538;2023-02-15T05:32:18;-1.40;99.90
18163;DHT22;9206;50.994;4.538;2023-02-15T05:35:07;-1.40;99.90
18163;DHT22;9206;50.994;4.538;2023-02-15T05:38:00;-1.50;99.90
18163;DHT22;9206;50.994;4.538;2023-02-15T05:40:50;-1.50;99.90
18163;DHT22;9206;50.994;4.538;2023-02-15T05:43:42;-1.50;99.90
18163;DHT22;9206;50.994;4.538;2023-02-15T05:46:29;-1.50;99.90
18163;DHT22;9206;50.994;4.538;2023-02-15T05:49:16;-1.50;99.90
18163;DHT22;9206;50.994;4.538;2023-02-15T05:52:05;-1.60;99.90
18163;DHT22;9206;50.994;4.538;2023-02-15T05:54:52;-1.60;99.90
18163;DHT22;9206;50.994;4.538;2023-02-15T05:57:43;-1.60;99.90
18163;DHT22;9206;50.994;4.538;2023-02-15T06:00:31;-1.60;99.90
18163;DHT22;9206;50.994;4.538;2023-02-15T06:03:22;-1.50;99.90
18163;DHT22;9206;50.994;4.538;2023-02-15T06:06:10;-1.50;99.90
18163;DHT22;9206;50.994;4.538;2023-02-15T06:08:58;-1.60;99.90
18163;DHT22;9206;50.994;4.538;2023-02-15T06:11:46;-1.70;99.90
18163;DHT22;9206;50.994;4.538;2023-02-15T06:14:39;-1.70;99.90
18163;DHT22;9206;50.994;4.538;2023-02-15T06:17:31;-1.80;99.90
18163;DHT22;9206;50.994;4.538;2023-02-15T06:20:24;-1.70;99.90
18163;DHT22;9206;50.994;4.538;2023-02-15T06:23:12;-1.60;99.90
18163;DHT22;9206;50.994;4.538;2023-02-15T06:25:59;-1.60;99.90
18163;DHT22;9206;50.994;4.538;2023-02-15T06:28:48;-1.70;99.90
18163;DHT22;9206;50.994;4.538;2023-02-15T06:31:37;-1.70;99.90
18163;DHT22;9206;50.994;4.538;2023-02-15T06:34:31;-1.70;99.90
18163;DHT22;9206;50.994;4.538;2023-02-15T06:37:26;-1.70;99.90
18163;DHT22;9206;50.994;4.538;2023-02-15T06:40:13;-1.70;99.90
18163;DHT22;9206;50.994;4.538;2023-02-15T06:43:02;-1.70;99.90
18163;DHT22;9206;50.994;4.538;2023-02-15T06:45:51;-1.70;99.90
18163;DHT22;9206;50.994;4.538;2023-02-15T06:48:38;-1.70;99.90
18163;DHT22;9206;50.994;4.538;2023-02-15T06:51:29;-1.60;99.90
18163;DHT22;9206;50.994;4.538;2023-02-15T06:54:20;-1.60;99.90
18163;DHT22;9206;50.994;4.538;2023-02-15T06:57:14;-1.60;99.90
18163;DHT22;9206;50.994;4.538;2023-02-15T07:00:04;-1.60;99.90
18163;DHT22;9206;50.994;4.538;2023-02-15T07:02:54;-1.70;99.90
18163;DHT22;9206;50.994;4.538;2023-02-15T07:05:44;-1.70;99.90
18163;DHT22;9206;50.994;4.538;2023-02-15T07:08:38;-1.60;99.90
18163;DHT22;9206;50.994;4.538;2023-02-15T07:11:32;-1.60;99.90
18163;DHT22;9206;50.994;4.538;2023-02-15T07:14:41;-1.50;99.90
18163;DHT22;9206;50.994;4.538;2023-02-15T07:17:29;-1.40;99.90
18163;DHT22;9206;50.994;4.538;2023-02-15T07:20:21;-1.30;99.90
18163;DHT22;9206;50.994;4.538;2023-02-15T07:23:08;-1.20;99.90
18163;DHT22;9206;50.994;4.538;2023-02-15T07:26:03;-1.10;99.90
18163;DHT22;9206;50.994;4.538;2023-02-15T07:28:51;-1.00;99.90
18163;DHT22;9206;50.994;4.538;2023-02-15T07:31:39;-0.90;99.90
18163;DHT22;9206;50.994;4.538;2023-02-15T07:34:29;-0.70;99.90
18163;DHT22;9206;50.994;4.538;2023-02-15T07:37:16;-0.60;99.90
18163;DHT22;9206;50.994;4.538;2023-02-15T07:40:04;-0.50;99.90
18163;DHT22;9206;50.994;4.538;2023-02-15T07:42:57;-0.30;99.90
18163;DHT22;9206;50.994;4.538;2023-02-15T07:45:45;-0.20;99.90
18163;DHT22;9206;50.994;4.538;2023-02-15T07:48:32;0.00;99.90
18163;DHT22;9206;50.994;4.538;2023-02-15T07:51:22;0.10;99.90
18163;DHT22;9206;50.994;4.538;2023-02-15T07:54:09;0.20;99.90
18163;DHT22;9206;50.994;4.538;2023-02-15T07:57:00;0.30;99.90
18163;DHT22;9206;50.994;4.538;2023-02-15T07:59:49;0.50;99.90
18163;DHT22;9206;50.994;4.538;2023-02-15T08:02:53;0.60;99.90
18163;DHT22;9206;50.994;4.538;2023-02-15T08:06:16;0.70;99.90
18163;DHT22;9206;50.994;4.538;2023-02-15T08:09:44;0.90;99.90
18163;DHT22;9206;50.994;4.538;2023-02-15T08:12:48;1.10;99.90
18163;DHT22;9206;50.994;4.538;2023-02-15T08:15:48;1.30;99.90
18163;DHT22;9206;50.994;4.538;2023-02-15T08:18:42;1.50;99.90
18163;DHT22;9206;50.994;4.538;2023-02-15T08:21:32;1.70;99.90
18163;DHT22;9206;50.994;4.538;2023-02-15T08:24:27;1.90;99.90
18163;DHT22;9206;50.994;4.538;2023-02-15T08:27:15;2.10;99.90
18163;DHT22;9206;50.994;4.538;2023-02-15T08:30:05;2.30;99.90
18163;DHT22;9206;50.994;4.538;2023-02-15T08:32:55;2.50;99.90
18163;DHT22;9206;50.994;4.538;2023-02-15T08:35:44;2.80;99.90
18163;DHT22;9206;50.994;4.538;2023-02-15T08:38:32;3.00;99.90
18163;DHT22;9206;50.994;4.538;2023-02-15T08:41:21;3.20;99.90
18163;DHT22;9206;50.994;4.538;2023-02-15T08:44:10;3.50;99.90
18163;DHT22;9206;50.994;4.538;2023-02-15T08:46:57;3.70;99.90
18163;DHT22;9206;50.994;4.538;2023-02-15T08:49:49;4.00;99.90
18163;DHT22;9206;50.994;4.538;2023-02-15T08:52:39;4.30;99.90
18163;DHT22;9206;50.994;4.538;2023-02-15T08:55:26;4.60;99.90
18163;DHT22;9206;50.994;4.538;2023-02-15T08:58:19;5.10;99.90
18163;DHT22;9206;50.994;4.538;2023-02-15T09:01:11;6.20;99.90
18163;DHT22;9206;50.994;4.538;2023-02-15T09:04:08;7.70;99.90
18163;DHT22;9206;50.994;4.538;2023-02-15T09:06:57;9.30;99.90
18163;DHT22;9206;50.994;4.538;2023-02-15T09:09:45;10.50;99.90
18163;DHT22;9206;50.994;4.538;2023-02-15T09:12:36;11.20;99.90
18163;DHT22;9206;50.994;4.538;2023-02-15T09:15:25;12.00;99.90
18163;DHT22;9206;50.994;4.538;2023-02-15T09:18:14;12.50;99.90
18163;DHT22;9206;50.994;4.538;2023-02-15T09:21:08;13.00;99.90
18163;DHT22;9206;50.994;4.538;2023-02-15T09:24:07;13.40;99.90
18163;DHT22;9206;50.994;4.538;2023-02-15T09:26:56;13.70;99.90
18163;DHT22;9206;50.994;4.538;2023-02-15T09:29:47;14.20;99.90
18163;DHT22;9206;50.994;4.538;2023-02-15T09:32:35;14.30;99.90
18163;DHT22;9206;50.994;4.538;2023-02-15T09:35:25;14.50;99.90
18163;DHT22;9206;50.994;4.538;2023-02-15T09:38:12;15.10;99.90
18163;DHT22;9206;50.994;4.538;2023-02-15T09:41:36;15.80;99.90
18163;DHT22;9206;50.994;4.538;2023-02-15T09:44:34;16.30;99.90
18163;DHT22;9206;50.994;4.538;2023-02-15T09:47:41;16.20;99.90
18163;DHT22;9206;50.994;4.538;2023-02-15T09:50:39;15.90;99.90
18163;DHT22;9206;50.994;4.538;2023-02-15T09:53:46;15.70;99.90
18163;DHT22;9206;50.994;4.538;2023-02-15T09:56:40;15.90;99.90
18163;DHT22;9206;50.994;4.538;2023-02-15T09:59:34;16.30;99.90
18163;DHT22;9206;50.994;4.538;2023-02-15T10:02:37;17.20;99.90
18163;DHT22;9206;50.994;4.538;2023-02-15T10:05:36;18.00;99.90
18163;DHT22;9206;50.994;4.538;2023-02-15T10:08:58;18.60;99.90
18163;DHT22;9206;50.994;4.538;2023-02-15T10:12:04;19.40;99.90
18163;DHT22;9206;50.994;4.538;2023-02-15T10:15:20;20.00;99.90
18163;DHT22;9206;50.994;4.538;2023-02-15T10:18:30;19.80;99.90
18163;DHT22;9206;50.994;4.538;2023-02-15T10:21:33;19.70;99.90
18163;DHT22;9206;50.994;4.538;2023-02-15T10:24:52;21.20;99.90
18163;DHT22;9206;50.994;4.538;2023-02-15T10:27:45;22.40;99.90
18163;DHT22;9206;50.994;4.538;2023-02-15T10:30:43;23.10;99.90
18163;DHT22;9206;50.994;4.538;2023-02-15T10:33:38;24.00;99.90
18163;DHT22;9206;50.994;4.538;2023-02-15T10:36:47;24.50;99.90
18163;DHT22;9206;50.994;4.538;2023-02-15T10:39:43;24.00;99.90
18163;DHT22;9206;50.994;4.538;2023-02-15T10:42:44;24.10;99.90
18163;DHT22;9206;50.994;4.538;2023-02-15T10:45:40;24.80;98.60
18163;DHT22;9206;50.994;4.538;2023-02-15T10:48:43;24.40;96.80
18163;DHT22;9206;50.994;4.538;2023-02-15T10:51:47;24.20;97.50
18163;DHT22;9206;50.994;4.538;2023-02-15T10:54:41;24.20;96.50
18163;DHT22;9206;50.994;4.538;2023-02-15T10:57:38;23.50;96.10
18163;DHT22;9206;50.994;4.538;2023-02-15T11:00:37;23.60;96.00
18163;DHT22;9206;50.994;4.538;2023-02-15T11:03:40;23.60;94.90
18163;DHT22;9206;50.994;4.538;2023-02-15T11:06:39;21.80;94.30
18163;DHT22;9206;50.994;4.538;2023-02-15T11:09:33;21.40;95.40
18163;DHT22;9206;50.994;4.538;2023-02-15T11:12:24;20.20;95.40
18163;DHT22;9206;50.994;4.538;2023-02-15T11:15:24;19.10;96.70
18163;DHT22;9206;50.994;4.538;2023-02-15T11:18:22;18.90;97.50
18163;DHT22;9206;50.994;4.538;2023-02-15T11:21:17;18.90;98.00
18163;DHT22;9206;50.994;4.538;2023-02-15T11:24:14;19.10;98.40
18163;DHT22;9206;50.994;4.538;2023-02-15T11:27:18;19.30;99.40
18163;DHT22;9206;50.994;4.538;2023-02-15T11:30:12;19.50;98.90
18163;DHT22;9206;50.994;4.538;2023-02-15T11:33:02;19.60;98.00
18163;DHT22;9206;50.994;4.538;2023-02-15T11:35:58;19.40;98.50
18163;DHT22;9206;50.994;4.538;2023-02-15T11:38:54;19.30;99.20
18163;DHT22;9206;50.994;4.538;2023-02-15T11:41:48;19.70;98.60
18163;DHT22;9206;50.994;4.538;2023-02-15T11:44:54;19.50;98.70
18163;DHT22;9206;50.994;4.538;2023-02-15T11:47:44;19.20;99.90
18163;DHT22;9206;50.994;4.538;2023-02-15T11:50:33;19.70;98.70
18163;DHT22;9206;50.994;4.538;2023-02-15T11:53:30;20.20;99.80
18163;DHT22;9206;50.994;4.538;2023-02-15T11:56:21;21.10;98.20
18163;DHT22;9206;50.994;4.538;2023-02-15T11:59:12;21.90;97.50
18163;DHT22;9206;50.994;4.538;2023-02-15T12:02:02;22.60;97.30
18163;DHT22;9206;50.994;4.538;2023-02-15T12:04:53;23.20;97.90
18163;DHT22;9206;50.994;4.538;2023-02-15T12:07:44;22.70;97.00
18163;DHT22;9206;50.994;4.538;2023-02-15T12:10:50;22.40;96.60
18163;DHT22;9206;50.994;4.538;2023-02-15T12:13:55;21.90;95.80
18163;DHT22;9206;50.994;4.538;2023-02-15T12:16:50;21.10;97.00
18163;DHT22;9206;50.994;4.538;2023-02-15T12:19:39;20.80;97.10
18163;DHT22;9206;50.994;4.538;2023-02-15T12:22:29;20.80;97.00
18163;DHT22;9206;50.994;4.538;2023-02-15T12:25:22;21.20;98.70
18163;DHT22;9206;50.994;4.538;2023-02-15T12:28:25;21.30;97.30
18163;DHT22;9206;50.994;4.538;2023-02-15T12:31:21;20.30;97.40
18163;DHT22;9206;50.994;4.538;2023-02-15T12:34:13;19.20;97.80
18163;DHT22;9206;50.994;4.538;2023-02-15T12:37:15;18.50;98.40
18163;DHT22;9206;50.994;4.538;2023-02-15T12:40:19;17.80;99.90
18163;DHT22;9206;50.994;4.538;2023-02-15T12:43:26;17.10;99.90
18163;DHT22;9206;50.994;4.538;2023-02-15T12:46:22;17.10;99.90
18163;DHT22;9206;50.994;4.538;2023-02-15T12:49:17;17.60;99.90
18163;DHT22;9206;50.994;4.538;2023-02-15T12:52:24;18.50;99.90
18163;DHT22;9206;50.994;4.538;2023-02-15T12:55:23;20.50;99.90
18163;DHT22;9206;50.994;4.538;2023-02-15T12:58:17;21.40;99.90
18163;DHT22;9206;50.994;4.538;2023-02-15T13:01:12;22.20;98.20
18163;DHT22;9206;50.994;4.538;2023-02-15T13:04:16;23.30;97.90
18163;DHT22;9206;50.994;4.538;2023-02-15T13:07:11;23.40;97.00
18163;DHT22;9206;50.994;4.538;2023-02-15T13:10:01;24.10;97.20
18163;DHT22;9206;50.994;4.538;2023-02-15T13:12:49;24.70;96.30
18163;DHT22;9206;50.994;4.538;2023-02-15T13:15:41;24.20;95.70
18163;DHT22;9206;50.994;4.538;2023-02-15T13:18:38;23.60;95.30
18163;DHT22;9206;50.994;4.538;2023-02-15T13:21:39;23.40;95.50
18163;DHT22;9206;50.994;4.538;2023-02-15T13:24:33;22.80;95.50
18163;DHT22;9206;50.994;4.538;2023-02-15T13:27:29;22.30;96.80
18163;DHT22;9206;50.994;4.538;2023-02-15T13:30:24;22.60;97.20
18163;DHT22;9206;50.994;4.538;2023-02-15T13:33:23;21.90;96.40
18163;DHT22;9206;50.994;4.538;2023-02-15T13:36:23;22.10;97.90
18163;DHT22;9206;50.994;4.538;2023-02-15T13:39:25;22.20;97.80
18163;DHT22;9206;50.994;4.538;2023-02-15T13:42:20;21.60;97.80
18163;DHT22;9206;50.994;4.538;2023-02-15T13:45:24;21.10;98.30
18163;DHT22;9206;50.994;4.538;2023-02-15T13:48:18;21.40;98.40
18163;DHT22;9206;50.994;4.538;2023-02-15T13:51:16;21.20;98.40
18163;DHT22;9206;50.994;4.538;2023-02-15T13:57:56;21.40;98.80
18163;DHT22;9206;50.994;4.538;2023-02-15T14:00:57;21.40;98.70
18163;DHT22;9206;50.994;4.538;2023-02-15T14:04:08;21.20;99.00
18163;DHT22;9206;50.994;4.538;2023-02-15T14:07:22;21.10;98.90
18163;DHT22;9206;50.994;4.538;2023-02-15T14:10:39;21.30;98.80
18163;DHT22;9206;50.994;4.538;2023-02-15T14:13:56;21.30;98.50
18163;DHT22;9206;50.994;4.538;2023-02-15T14:16:53;21.00;99.30
18163;DHT22;9206;50.994;4.538;2023-02-15T14:19:47;21.30;99.50
18163;DHT22;9206;50.994;4.538;2023-02-15T14:22:40;21.50;98.20
18163;DHT22;9206;50.994;4.538;2023-02-15T14:25:37;21.50;98.90
18163;DHT22;9206;50.994;4.538;2023-02-15T14:28:32;22.60;98.80
18163;DHT22;9206;50.994;4.538;2023-02-15T14:31:26;22.60;98.40
18163;DHT22;9206;50.994;4.538;2023-02-15T14:34:20;22.20;98.40
18163;DHT22;9206;50.994;4.538;2023-02-15T14:37:11;21.80;98.60
18163;DHT22;9206;50.994;4.538;2023-02-15T14:40:07;21.40;98.50
18163;DHT22;9206;50.994;4.538;2023-02-15T14:43:22;20.60;98.40
18163;DHT22;9206;50.994;4.538;2023-02-15T14:46:21;19.50;99.50
18163;DHT22;9206;50.994;4.538;2023-02-15T14:49:12;19.00;99.90
18163;DHT22;9206;50.994;4.538;2023-02-15T14:52:05;18.60;99.90
18163;DHT22;9206;50.994;4.538;2023-02-15T14:55:00;18.40;99.90
18163;DHT22;9206;50.994;4.538;2023-02-15T14:57:56;17.90;99.90
18163;DHT22;9206;50.994;4.538;2023-02-15T15:00:48;17.80;99.90
18163;DHT22;9206;50.994;4.538;2023-02-15T15:03:44;17.90;99.90
18163;DHT22;9206;50.994;4.538;2023-02-15T15:06:38;17.70;99.90
18163;DHT22;9206;50.994;4.538;2023-02-15T15:09:29;17.60;99.90
18163;DHT22;9206;50.994;4.538;2023-02-15T15:12:38;17.70;99.90
18163;DHT22;9206;50.994;4.538;2023-02-15T15:15:45;17.50;99.90
18163;DHT22;9206;50.994;4.538;2023-02-15T15:18:48;17.00;99.90
18163;DHT22;9206;50.994;4.538;2023-02-15T15:22:02;16.60;99.90
18163;DHT22;9206;50.994;4.538;2023-02-15T15:24:57;16.30;99.90
18163;DHT22;9206;50.994;4.538;2023-02-15T15:27:50;16.10;99.90
18163;DHT22;9206;50.994;4.538;2023-02-15T15:30:50;15.90;99.90
18163;DHT22;9206;50.994;4.538;2023-02-15T15:34:10;15.80;99.90
18163;DHT22;9206;50.994;4.538;2023-02-15T15:40:50;16.60;99.90
18163;DHT22;9206;50.994;4.538;2023-02-15T15:47:33;16.50;99.90
18163;DHT22;9206;50.994;4.538;2023-02-15T15:50:26;16.50;99.90
18163;DHT22;9206;50.994;4.538;2023-02-15T15:53:19;16.20;99.90
18163;DHT22;9206;50.994;4.538;2023-02-15T15:56:14;15.50;99.90
18163;DHT22;9206;50.994;4.538;2023-02-15T15:59:05;15.00;99.90
18163;DHT22;9206;50.994;4.538;2023-02-15T16:01:56;14.50;99.90
18163;DHT22;9206;50.994;4.538;2023-02-15T16:04:51;14.20;99.90
18163;DHT22;9206;50.994;4.538;2023-02-15T16:07:41;14.00;99.90
18163;DHT22;9206;50.994;4.538;2023-02-15T16:10:30;13.80;99.90
18163;DHT22;9206;50.994;4.538;2023-02-15T16:13:26;13.50;99.90
18163;DHT22;9206;50.994;4.538;2023-02-15T16:16:25;13.30;99.90
18163;DHT22;9206;50.994;4.538;2023-02-15T16:19:26;13.10;99.90
18163;DHT22;9206;50.994;4.538;2023-02-15T16:22:18;12.90;99.90
18163;DHT22;9206;50.994;4.538;2023-02-15T16:25:31;12.80;99.90
18163;DHT22;9206;50.994;4.538;2023-02-15T16:28:21;12.60;99.90
18163;DHT22;9206;50.994;4.538;2023-02-15T16:31:15;12.50;99.90
18163;DHT22;9206;50.994;4.538;2023-02-15T16:34:09;12.40;99.90
18163;DHT22;9206;50.994;4.538;2023-02-15T16:37:15;12.20;99.90
18163;DHT22;9206;50.994;4.538;2023-02-15T16:40:11;12.00;99.90
18163;DHT22;9206;50.994;4.538;2023-02-15T16:43:15;11.90;99.90
18163;DHT22;9206;50.994;4.538;2023-02-15T16:46:25;11.80;99.90
18163;DHT22;9206;50.994;4.538;2023-02-15T16:49:16;11.70;99.90
18163;DHT22;9206;50.994;4.538;2023-02-15T16:52:06;11.60;99.90
18163;DHT22;9206;50.994;4.538;2023-02-15T16:54:57;11.50;99.90
18163;DHT22;9206;50.994;4.538;2023-02-15T16:57:46;11.40;99.90
18163;DHT22;9206;50.994;4.538;2023-02-15T17:00:38;11.20;99.90
18163;DHT22;9206;50.994;4.538;2023-02-15T17:03:28;11.10;99.90
18163;DHT22;9206;50.994;4.538;2023-02-15T17:06:23;11.00;99.90
18163;DHT22;9206;50.994;4.538;2023-02-15T17:09:16;10.90;99.90
18163;DHT22;9206;50.994;4.538;2023-02-15T17:12:08;10.80;99.90
18163;DHT22;9206;50.994;4.538;2023-02-15T17:14:59;10.60;99.90
18163;DHT22;9206;50.994;4.538;2023-02-15T17:17:58;10.50;99.90
18163;DHT22;9206;50.994;4.538;2023-02-15T17:20:50;10.40;99.90
18163;DHT22;9206;50.994;4.538;2023-02-15T17:23:46;10.30;99.90
18163;DHT22;9206;50.994;4.538;2023-02-15T17:26:35;10.20;99.90
18163;DHT22;9206;50.994;4.538;2023-02-15T17:29:30;10.00;99.90
18163;DHT22;9206;50.994;4.538;2023-02-15T17:32:27;9.90;99.90
18163;DHT22;9206;50.994;4.538;2023-02-15T17:35:32;9.80;99.90
18163;DHT22;9206;50.994;4.538;2023-02-15T17:38:22;9.70;99.90
18163;DHT22;9206;50.994;4.538;2023-02-15T17:41:19;9.70;99.90
18163;DHT22;9206;50.994;4.538;2023-02-15T17:44:06;9.70;99.90
18163;DHT22;9206;50.994;4.538;2023-02-15T17:46:58;9.60;99.90
18163;DHT22;9206;50.994;4.538;2023-02-15T17:49:45;9.60;99.90
18163;DHT22;9206;50.994;4.538;2023-02-15T17:52:38;9.50;99.90
18163;DHT22;9206;50.994;4.538;2023-02-15T17:55:28;9.40;99.90
18163;DHT22;9206;50.994;4.538;2023-02-15T17:58:29;9.30;99.90
18163;DHT22;9206;50.994;4.538;2023-02-15T18:01:23;9.30;99.90
18163;DHT22;9206;50.994;4.538;2023-02-15T18:04:28;9.20;99.90
18163;DHT22;9206;50.994;4.538;2023-02-15T18:07:33;9.10;99.90
18163;DHT22;9206;50.994;4.538;2023-02-15T18:10:45;9.10;99.90
18163;DHT22;9206;50.994;4.538;2023-02-15T18:13:49;8.90;99.90
18163;DHT22;9206;50.994;4.538;2023-02-15T18:16:39;8.80;99.90
18163;DHT22;9206;50.994;4.538;2023-02-15T18:19:31;8.80;99.90
18163;DHT22;9206;50.994;4.538;2023-02-15T18:22:26;8.70;99.90
18163;DHT22;9206;50.994;4.538;2023-02-15T18:25:19;8.70;99.90
18163;DHT22;9206;50.994;4.538;2023-02-15T18:28:15;8.60;99.90
18163;DHT22;9206;50.994;4.538;2023-02-15T18:31:04;8.50;99.90
18163;DHT22;9206;50.994;4.538;2023-02-15T18:33:53;8.50;99.90
18163;DHT22;9206;50.994;4.538;2023-02-15T18:36:47;8.50;99.90
18163;DHT22;9206;50.994;4.538;2023-02-15T18:39:38;8.40;99.90
18163;DHT22;9206;50.994;4.538;2023-02-15T18:42:29;8.40;99.90
18163;DHT22;9206;50.994;4.538;2023-02-15T18:45:20;8.40;99.90
18163;DHT22;9206;50.994;4.538;2023-02-15T18:48:16;8.50;99.90
18163;DHT22;9206;50.994;4.538;2023-02-15T18:51:16;8.50;99.90
18163;DHT22;9206;50.994;4.538;2023-02-15T18:54:09;8.60;99.90
18163;DHT22;9206;50.994;4.538;2023-02-15T18:57:04;8.70;99.90
18163;DHT22;9206;50.994;4.538;2023-02-15T18:59:57;8.80;99.90
18163;DHT22;9206;50.994;4.538;2023-02-15T19:02:46;8.80;99.90
18163;DHT22;9206;50.994;4.538;2023-02-15T19:05:35;9.00;99.90
18163;DHT22;9206;50.994;4.538;2023-02-15T19:08:28;9.00;99.90
18163;DHT22;9206;50.994;4.538;2023-02-15T19:11:18;9.00;99.90